Time;durP1;ratioP1;P1;durP2;ratioP2;P2;SDS_P1;SDS_P2;PMS_P1;PMS_P2;Temp;Humidity;BMP_temperature;BMP_pressure;BME280_temperature;BME280_humidity;BME280_pressure;Samples;Min_cycle;Max_cycle;Signal;HPM_P1;HPM_P2
2021/06/15 00:02:17;;;;;;;3.15;1.70;;;19.60;81.20;;;;;;5072088;28;20028;-78
2021/06/15 00:04:43;;;;;;;3.20;1.33;;;19.60;81.40;;;;;;5099792;22;20055;-83
2021/06/15 00:07:09;;;;;;;4.38;1.75;;;19.60;82.00;;;;;;5085528;28;20024;-82
2021/06/15 00:09:34;;;;;;;6.57;1.77;;;19.60;81.70;;;;;;5086663;28;20368;-84
2021/06/15 00:12:01;;;;;;;2.85;1.50;;;19.60;81.80;;;;;;5091137;28;20338;-83
2021/06/15 00:14:26;;;;;;;4.35;1.67;;;19.50;81.80;;;;;;5097432;28;20069;-84
2021/06/15 00:16:53;;;;;;;3.10;1.48;;;19.60;82.00;;;;;;5064223;28;20032;-85
2021/06/15 00:19:18;;;;;;;4.80;1.48;;;19.50;82.10;;;;;;5080478;28;20127;-84
2021/06/15 00:21:44;;;;;;;4.00;1.55;;;19.50;82.50;;;;;;5101881;28;20028;-85
2021/06/15 00:24:10;;;;;;;4.00;1.55;;;19.50;82.50;;;;;;5093755;28;20035;-84
2021/06/15 00:26:36;;;;;;;3.28;1.50;;;19.40;82.90;;;;;;5084716;28;20016;-84
2021/06/15 00:29:01;;;;;;;3.35;1.58;;;19.40;83.20;;;;;;5088699;28;20073;-84
2021/06/15 00:31:27;;;;;;;3.85;1.83;;;19.30;83.60;;;;;;5095416;28;20020;-83
2021/06/15 00:33:54;;;;;;;4.38;1.55;;;19.20;83.30;;;;;;5100340;28;20024;-84
2021/06/15 00:36:19;;;;;;;3.13;1.73;;;19.20;83.70;;;;;;5064061;28;20052;-83
2021/06/15 00:38:45;;;;;;;4.25;1.73;;;19.20;83.90;;;;;;5072041;28;20024;-84
2021/06/15 00:41:11;;;;;;;3.45;1.50;;;19.20;84.60;;;;;;5091668;28;20035;-84
2021/06/15 00:43:37;;;;;;;3.03;1.40;;;19.20;84.40;;;;;;5092893;28;20036;-84
2021/06/15 00:46:02;;;;;;;2.90;1.40;;;19.10;84.50;;;;;;5101385;28;20047;-83
2021/06/15 00:48:34;;;;;;;3.22;1.50;;;19.10;84.80;;;;;;5072902;28;20059;-84
2021/06/15 00:51:01;;;;;;;3.42;1.42;;;19.10;84.70;;;;;;5079684;28;20020;-83
2021/06/15 00:53:28;;;;;;;2.75;1.30;;;19.10;84.60;;;;;;5089818;28;20029;-84
2021/06/15 00:55:54;;;;;;;3.53;1.40;;;19.00;84.90;;;;;;5080950;28;20033;-85
2021/06/15 00:58:21;;;;;;;3.65;1.30;;;19.00;85.70;;;;;;5106297;28;20024;-83
2021/06/15 01:00:48;;;;;;;3.25;1.52;;;19.00;85.50;;;;;;5104506;28;20020;-84
2021/06/15 01:03:16;;;;;;;4.47;1.60;;;19.00;85.60;;;;;;5104608;28;20032;-83
2021/06/15 01:05:41;;;;;;;3.40;1.50;;;18.90;85.70;;;;;;5089418;28;20032;-83
2021/06/15 01:08:29;;;;;;;3.53;1.50;;;18.90;85.90;;;;;;5089356;28;20050;-83
2021/06/15 01:11:03;;;;;;;3.67;1.60;;;18.80;86.10;;;;;;5067496;28;20315;-84
2021/06/15 01:13:48;;;;;;;3.88;1.70;;;18.80;86.20;;;;;;5068863;28;20029;-84
2021/06/15 01:16:44;;;;;;;3.50;1.50;;;18.70;86.30;;;;;;5066287;28;20029;-84
2021/06/15 01:19:37;;;;;;;4.25;1.80;;;18.60;86.70;;;;;;5065224;28;20040;-82
2021/06/15 01:22:14;;;;;;;4.80;1.75;;;18.60;87.10;;;;;;5076210;28;20035;-83
2021/06/15 01:24:52;;;;;;;4.10;2.08;;;18.50;87.70;;;;;;5106379;28;20027;-83
2021/06/15 01:27:39;;;;;;;6.10;1.75;;;18.50;88.00;;;;;;5102359;28;20027;-82
2021/06/15 01:30:08;;;;;;;3.88;1.90;;;18.50;88.20;;;;;;5077812;28;20024;-82
2021/06/15 01:32:36;;;;;;;4.53;1.80;;;18.40;88.70;;;;;;5061379;28;20083;-84
2021/06/15 01:35:07;;;;;;;4.88;1.77;;;18.40;88.90;;;;;;5060470;28;20040;-83
2021/06/15 01:37:43;;;;;;;5.53;1.70;;;18.40;89.30;;;;;;5055017;28;20430;-83
2021/06/15 01:40:17;;;;;;;5.15;1.60;;;18.40;89.60;;;;;;5084666;28;20477;-83
2021/06/15 01:42:48;;;;;;;5.88;1.88;;;18.30;89.20;;;;;;5068089;28;20476;-83
2021/06/15 01:45:16;;;;;;;3.55;1.73;;;18.30;89.30;;;;;;5086574;28;20036;-82
2021/06/15 01:47:51;;;;;;;3.78;1.80;;;18.30;89.50;;;;;;5094437;28;20028;-83
2021/06/15 01:50:21;;;;;;;5.43;1.90;;;18.30;89.80;;;;;;5086247;28;20047;-83
2021/06/15 01:52:49;;;;;;;5.13;2.33;;;18.30;89.80;;;;;;5076735;28;20035;-83
2021/06/15 01:55:17;;;;;;;5.43;1.88;;;18.30;90.00;;;;;;5091639;28;20111;-83
2021/06/15 01:57:43;;;;;;;5.05;1.92;;;18.30;90.10;;;;;;5083496;28;20021;-84
2021/06/15 02:00:12;;;;;;;5.28;2.03;;;18.30;90.30;;;;;;5087461;28;20513;-83
2021/06/15 02:02:39;;;;;;;6.40;2.40;;;18.30;90.30;;;;;;5098723;28;20508;-82
2021/06/15 02:05:08;;;;;;;3.95;2.03;;;18.20;90.10;;;;;;5081421;28;20477;-83
2021/06/15 02:07:38;;;;;;;3.42;1.73;;;18.20;90.30;;;;;;5086428;28;20023;-83
2021/06/15 02:10:11;;;;;;;4.10;1.80;;;18.10;90.40;;;;;;5062119;28;20099;-83
2021/06/15 02:12:40;;;;;;;4.82;2.10;;;18.10;90.50;;;;;;5044969;28;20113;-82
2021/06/15 02:15:10;;;;;;;5.28;1.77;;;18.00;90.60;;;;;;5065098;28;20493;-82
2021/06/15 02:17:40;;;;;;;3.97;2.03;;;18.10;90.80;;;;;;5056777;28;20063;-84
2021/06/15 02:20:09;;;;;;;3.92;1.83;;;18.10;90.80;;;;;;5062316;28;20021;-83
2021/06/15 02:22:35;;;;;;;4.05;2.05;;;18.00;91.10;;;;;;5062302;28;20075;-83
2021/06/15 02:25:03;;;;;;;5.25;2.33;;;18.00;91.20;;;;;;5061713;28;20482;-83
2021/06/15 02:27:28;;;;;;;4.10;2.10;;;18.00;91.30;;;;;;5044290;28;20069;-82
2021/06/15 02:29:58;;;;;;;5.57;2.42;;;17.90;91.30;;;;;;5062003;28;20527;-84
2021/06/15 02:32:30;;;;;;;5.43;2.30;;;17.90;91.50;;;;;;5050744;28;20101;-85
2021/06/15 02:34:58;;;;;;;4.78;2.38;;;17.80;91.60;;;;;;5082743;28;20028;-84
2021/06/15 02:37:50;;;;;;;6.22;2.30;;;17.80;91.70;;;;;;5060885;28;20036;-85
2021/06/15 02:40:17;;;;;;;5.47;2.00;;;17.70;91.80;;;;;;5060833;28;20025;-84
2021/06/15 02:42:45;;;;;;;4.82;2.30;;;17.60;92.10;;;;;;5060387;28;20028;-82
2021/06/15 02:45:13;;;;;;;6.28;2.30;;;17.60;92.40;;;;;;5061182;28;20028;-83
2021/06/15 02:47:44;;;;;;;5.15;2.53;;;17.60;92.20;;;;;;5060752;28;20032;-82
2021/06/15 02:50:11;;;;;;;4.35;2.22;;;17.60;92.40;;;;;;5042930;28;20021;-83
2021/06/15 02:52:56;;;;;;;5.10;2.25;;;17.50;92.50;;;;;;5042759;28;20033;-82
2021/06/15 02:55:38;;;;;;;5.68;3.10;;;17.60;92.60;;;;;;5060466;28;20023;-82
2021/06/15 02:58:05;;;;;;;3.83;2.15;;;17.60;92.50;;;;;;5042716;28;20075;-83
2021/06/15 03:00:31;;;;;;;4.13;2.00;;;17.50;92.60;;;;;;5043670;28;20033;-83
2021/06/15 03:02:57;;;;;;;3.05;1.92;;;17.50;92.60;;;;;;5060240;28;20013;-84
2021/06/15 03:05:23;;;;;;;5.22;2.60;;;17.50;92.60;;;;;;5060140;28;20029;-84
2021/06/15 03:07:49;;;;;;;6.15;2.38;;;17.40;92.80;;;;;;5052751;28;20029;-82
2021/06/15 03:10:17;;;;;;;8.52;2.60;;;17.40;93.00;;;;;;5060695;28;20120;-82
2021/06/15 03:12:50;;;;;;;4.82;2.38;;;17.30;93.00;;;;;;5042526;28;20029;-83
2021/06/15 03:15:20;;;;;;;4.55;2.25;;;17.30;93.00;;;;;;5059522;28;20021;-83
2021/06/15 03:18:03;;;;;;;7.40;2.90;;;17.30;93.10;;;;;;5061047;28;20085;-83
2021/06/15 03:20:29;;;;;;;7.00;2.53;;;17.20;93.30;;;;;;5059921;28;20101;-82
2021/06/15 03:23:14;;;;;;;5.93;2.80;;;17.20;93.50;;;;;;5059920;28;20025;-83
2021/06/15 03:25:41;;;;;;;5.47;2.50;;;17.20;93.60;;;;;;5043806;28;20027;-83
2021/06/15 03:28:14;;;;;;;5.38;2.55;;;17.30;93.70;;;;;;5041926;28;20025;-83
2021/06/15 03:30:42;;;;;;;6.60;2.47;;;17.30;93.70;;;;;;5041912;28;20032;-82
2021/06/15 03:33:13;;;;;;;5.00;2.25;;;17.20;94.00;;;;;;5059372;28;20097;-82
2021/06/15 03:35:47;;;;;;;6.30;2.60;;;17.20;94.10;;;;;;5058543;28;20089;-82
2021/06/15 03:38:14;;;;;;;6.70;2.28;;;17.20;94.30;;;;;;5059506;28;20044;-83
2021/06/15 03:40:44;;;;;;;4.55;2.20;;;17.10;94.50;;;;;;5059405;28;20056;-83
2021/06/15 03:43:12;;;;;;;3.78;2.35;;;17.10;94.60;;;;;;5058257;28;20031;-83
2021/06/15 03:45:50;;;;;;;4.72;2.42;;;17.10;94.60;;;;;;5041004;28;20430;-82
2021/06/15 03:48:17;;;;;;;4.32;2.30;;;17.00;94.80;;;;;;5057549;28;20025;-82
2021/06/15 03:50:43;;;;;;;4.75;2.53;;;17.10;94.90;;;;;;5040146;28;20023;-82
2021/06/15 03:53:11;;;;;;;4.60;2.38;;;17.10;95.00;;;;;;5056900;28;20056;-82
2021/06/15 03:55:40;;;;;;;3.70;2.08;;;17.10;95.30;;;;;;5043771;28;20040;-82
2021/06/15 03:58:08;;;;;;;6.43;2.72;;;17.10;95.50;;;;;;5061470;28;20029;-83
2021/06/15 04:00:37;;;;;;;5.97;2.50;;;17.10;95.50;;;;;;5061601;28;20075;-84
2021/06/15 04:03:06;;;;;;;4.85;2.33;;;17.10;95.80;;;;;;5061764;28;20033;-82
2021/06/15 04:05:34;;;;;;;6.38;2.90;;;17.10;95.80;;;;;;5042490;28;20040;-84
2021/06/15 04:08:04;;;;;;;6.47;2.67;;;17.10;96.10;;;;;;5079192;28;20028;-84
2021/06/15 04:10:31;;;;;;;7.50;2.92;;;17.00;96.30;;;;;;5072600;28;20059;-83
2021/06/15 04:13:01;;;;;;;6.28;2.47;;;17.00;96.60;;;;;;5041905;28;20025;-83
2021/06/15 04:15:27;;;;;;;6.43;2.80;;;17.00;96.70;;;;;;5060836;28;20052;-83
2021/06/15 04:17:57;;;;;;;5.72;2.88;;;17.00;96.80;;;;;;5061366;28;20024;-85
2021/06/15 04:20:26;;;;;;;8.18;2.83;;;17.10;97.00;;;;;;5061244;28;20236;-84
2021/06/15 04:22:55;;;;;;;4.35;2.47;;;17.10;96.90;;;;;;5043563;28;20039;-84
2021/06/15 04:25:26;;;;;;;5.97;2.72;;;17.10;97.20;;;;;;5064401;28;20174;-86
2021/06/15 04:27:51;;;;;;;6.20;3.22;;;17.20;97.10;;;;;;5063800;28;20148;-85
2021/06/15 04:30:19;;;;;;;6.55;3.10;;;17.30;97.10;;;;;;5083275;28;20036;-85
2021/06/15 04:32:56;;;;;;;5.05;2.67;;;17.40;96.90;;;;;;5084061;28;20016;-84
2021/06/15 04:35:26;;;;;;;6.20;2.33;;;17.50;97.00;;;;;;5082094;28;20070;-85
2021/06/15 04:37:53;;;;;;;5.00;2.55;;;17.60;97.10;;;;;;5081629;28;20016;-84
2021/06/15 04:40:34;;;;;;;4.82;2.83;;;17.60;97.10;;;;;;5075324;28;20027;-85
2021/06/15 04:43:26;;;;;;;6.10;2.80;;;17.70;96.70;;;;;;5084899;28;20021;-84
2021/06/15 04:45:56;;;;;;;5.07;2.83;;;17.80;96.70;;;;;;5064728;28;20094;-84
2021/06/15 04:48:31;;;;;;;7.00;2.90;;;17.80;96.70;;;;;;5068543;28;20020;-84
2021/06/15 04:51:02;;;;;;;7.95;2.60;;;17.80;96.70;;;;;;5079803;28;20035;-85
2021/06/15 04:53:30;;;;;;;5.90;2.88;;;17.90;96.80;;;;;;5071752;28;20476;-84
2021/06/15 04:55:59;;;;;;;8.25;2.90;;;18.00;96.80;;;;;;5079501;28;20068;-84
2021/06/15 04:58:25;;;;;;;7.35;2.50;;;18.10;96.80;;;;;;5064596;28;20036;-85
2021/06/15 05:00:52;;;;;;;6.22;2.95;;;18.20;96.80;;;;;;5080001;28;20024;-84
2021/06/15 05:03:20;;;;;;;5.80;2.90;;;18.20;96.30;;;;;;5065924;28;20035;-85
2021/06/15 05:05:48;;;;;;;5.68;2.47;;;18.30;96.50;;;;;;5071966;28;20036;-86
2021/06/15 05:08:14;;;;;;;4.97;2.70;;;18.40;96.50;;;;;;5071998;28;20059;-86
2021/06/15 05:10:43;;;;;;;6.65;2.75;;;18.50;96.20;;;;;;5081654;28;20104;-85
2021/06/15 05:13:10;;;;;;;7.70;2.85;;;18.50;95.90;;;;;;5065515;28;20071;-84
2021/06/15 05:15:43;;;;;;;5.93;2.85;;;18.40;96.00;;;;;;5078749;28;20092;-84
2021/06/15 05:18:09;;;;;;;6.20;2.85;;;18.50;96.00;;;;;;5065166;28;20084;-85
2021/06/15 05:20:36;;;;;;;5.88;2.55;;;18.60;95.90;;;;;;5084180;28;20028;-82
2021/06/15 05:23:24;;;;;;;5.25;2.70;;;18.60;95.90;;;;;;5084916;28;20032;-84
2021/06/15 05:25:50;;;;;;;7.10;3.47;;;18.60;95.80;;;;;;5068448;28;20020;-83
2021/06/15 05:28:17;;;;;;;6.88;2.80;;;18.70;95.50;;;;;;5084322;28;20017;-86
2021/06/15 05:30:43;;;;;;;7.05;3.08;;;18.70;95.50;;;;;;5085506;28;20013;-85
2021/06/15 05:33:11;;;;;;;5.68;2.53;;;18.80;95.60;;;;;;5086456;28;20024;-84
2021/06/15 05:35:37;;;;;;;5.50;2.50;;;18.80;95.50;;;;;;5088176;28;20077;-82
2021/06/15 05:38:02;;;;;;;5.78;3.28;;;19.00;95.30;;;;;;5080058;28;20079;-83
2021/06/15 05:40:28;;;;;;;5.45;3.08;;;19.10;95.40;;;;;;5088114;28;20025;-84
2021/06/15 05:42:54;;;;;;;6.00;2.90;;;19.20;95.50;;;;;;5070440;28;20115;-85
2021/06/15 05:45:19;;;;;;;4.55;2.65;;;19.20;95.70;;;;;;5071783;28;20080;-84
2021/06/15 05:47:45;;;;;;;6.40;2.85;;;19.30;95.70;;;;;;5083055;28;20028;-83
2021/06/15 05:50:13;;;;;;;6.85;2.80;;;19.30;95.70;;;;;;5089087;28;20091;-84
2021/06/15 05:52:39;;;;;;;9.85;2.72;;;19.40;95.50;;;;;;5089917;28;20016;-85
2021/06/15 05:55:06;;;;;;;5.80;2.90;;;19.50;95.30;;;;;;5084405;28;20059;-84
2021/06/15 05:57:32;;;;;;;5.05;2.50;;;19.80;94.80;;;;;;5085569;28;20024;-83
2021/06/15 05:59:58;;;;;;;5.28;2.42;;;19.90;94.20;;;;;;5074133;28;20024;-85
2021/06/15 06:02:25;;;;;;;5.47;2.28;;;19.90;94.00;;;;;;5066252;28;20031;-83
2021/06/15 06:10:08;;;;;;;5.95;2.58;;;19.70;93.80;;;;;;5095450;22;20145;-86
2021/06/15 06:12:34;;;;;;;5.88;2.50;;;19.70;94.40;;;;;;5074489;28;20028;-86
2021/06/15 06:15:00;;;;;;;4.43;2.42;;;19.70;93.90;;;;;;5064141;28;20024;-86
2021/06/15 06:17:26;;;;;;;5.22;2.45;;;20.00;94.10;;;;;;5053493;28;20047;-86
2021/06/15 06:19:53;;;;;;;7.28;2.38;;;20.20;94.20;;;;;;5068119;28;20032;-86
2021/06/15 06:22:20;;;;;;;6.68;2.13;;;20.50;94.10;;;;;;5072217;28;20028;-86
2021/06/15 06:24:47;;;;;;;3.78;2.00;;;20.60;93.60;;;;;;5067095;28;20032;-86
2021/06/15 06:27:13;;;;;;;5.90;2.58;;;20.80;93.10;;;;;;5069261;28;20031;-85
2021/06/15 06:29:39;;;;;;;4.85;1.83;;;20.80;92.70;;;;;;5066830;28;20052;-85
2021/06/15 06:32:05;;;;;;;5.95;2.30;;;20.90;92.40;;;;;;5072808;28;20066;-86
2021/06/15 06:34:31;;;;;;;5.30;2.53;;;20.90;92.70;;;;;;5077217;28;20021;-86
2021/06/15 06:36:57;;;;;;;5.47;2.35;;;20.70;92.10;;;;;;5076823;28;20032;-86
2021/06/15 06:39:22;;;;;;;4.53;2.08;;;20.70;92.70;;;;;;5076453;28;20103;-86
2021/06/15 06:41:49;;;;;;;5.68;2.08;;;20.80;93.00;;;;;;5061773;28;20063;-86
2021/06/15 06:44:15;;;;;;;9.43;2.00;;;20.90;92.90;;;;;;5059706;28;20033;-86
2021/06/15 06:46:41;;;;;;;5.72;2.28;;;21.00;93.00;;;;;;5059668;28;20044;-86
2021/06/15 06:49:07;;;;;;;6.82;2.38;;;21.00;93.40;;;;;;5069412;28;20436;-86
2021/06/15 06:51:33;;;;;;;7.57;2.63;;;21.20;93.40;;;;;;5054026;28;20462;-86
2021/06/15 06:53:59;;;;;;;5.03;2.22;;;21.30;93.40;;;;;;5057733;28;20028;-86
2021/06/15 06:56:26;;;;;;;10.43;2.58;;;21.40;93.00;;;;;;5068335;28;20021;-86
2021/06/15 06:58:52;;;;;;;4.85;2.15;;;21.30;92.70;;;;;;5064506;28;20051;-86
2021/06/15 07:01:18;;;;;;;9.07;2.17;;;21.50;93.10;;;;;;5059065;28;20055;-83
2021/06/15 07:03:43;;;;;;;5.75;2.28;;;21.60;93.20;;;;;;5052422;28;20017;-83
2021/06/15 07:06:09;;;;;;;5.35;2.30;;;21.80;92.50;;;;;;5060060;28;20029;-83
2021/06/15 07:08:35;;;;;;;5.68;2.17;;;22.10;92.00;;;;;;5069767;28;20029;-83
2021/06/15 07:11:01;;;;;;;6.20;2.22;;;22.30;91.40;;;;;;5073396;28;20029;-83
2021/06/15 07:13:27;;;;;;;4.95;1.83;;;22.40;91.40;;;;;;5080296;28;20044;-83
2021/06/15 07:15:52;;;;;;;5.28;2.33;;;22.50;90.20;;;;;;5074591;28;21326;-83
2021/06/15 07:18:18;;;;;;;5.30;2.20;;;22.50;90.10;;;;;;5067450;28;20419;-83
2021/06/15 07:20:44;;;;;;;4.88;2.00;;;22.60;89.70;;;;;;5071124;28;20163;-83
2021/06/15 07:23:09;;;;;;;5.03;2.05;;;22.70;90.10;;;;;;5072321;28;20064;-84
2021/06/15 07:25:35;;;;;;;4.95;2.00;;;22.60;89.70;;;;;;5069025;28;20032;-84
2021/06/15 07:28:01;;;;;;;6.07;2.17;;;22.90;90.10;;;;;;5055788;28;20029;-83
2021/06/15 07:30:27;;;;;;;3.83;1.90;;;23.10;90.50;;;;;;5068732;28;20040;-83
2021/06/15 07:32:57;;;;;;;4.40;1.90;;;23.30;89.80;;;;;;5066099;28;20035;-83
2021/06/15 07:35:25;;;;;;;5.80;1.90;;;23.50;89.20;;;;;;5066194;28;20040;-83
2021/06/15 07:37:51;;;;;;;6.72;2.20;;;23.50;88.90;;;;;;5072063;28;20024;-83
2021/06/15 07:40:22;;;;;;;5.40;1.80;;;23.70;88.90;;;;;;5083593;28;20024;-84
2021/06/15 07:42:53;;;;;;;5.10;1.73;;;24.00;87.70;;;;;;5064394;28;20027;-83
2021/06/15 07:45:20;;;;;;;4.38;2.00;;;24.10;86.20;;;;;;5067440;28;20026;-83
2021/06/15 07:47:45;;;;;;;6.15;1.50;;;24.30;85.50;;;;;;5062567;28;20017;-83
2021/06/15 07:50:13;;;;;;;3.95;1.60;;;24.30;85.70;;;;;;5066738;28;20059;-84
2021/06/15 07:52:39;;;;;;;7.00;1.55;;;24.40;85.80;;;;;;5070126;28;20103;-83
2021/06/15 07:55:06;;;;;;;4.97;1.85;;;24.40;84.20;;;;;;5066599;28;20132;-83
2021/06/15 07:57:31;;;;;;;4.15;1.70;;;24.40;82.70;;;;;;5061310;28;20020;-83
2021/06/15 07:59:57;;;;;;;4.28;1.48;;;24.60;83.10;;;;;;5074682;28;20108;-84
2021/06/15 08:02:22;;;;;;;5.30;1.48;;;24.70;81.60;;;;;;5078689;28;20032;-83
2021/06/15 08:04:48;;;;;;;4.75;1.42;;;24.80;82.30;;;;;;5067278;28;20024;-83
2021/06/15 08:07:14;;;;;;;4.40;1.40;;;24.80;80.50;;;;;;5078642;28;20562;-84
2021/06/15 08:09:40;;;;;;;4.97;1.70;;;25.00;80.70;;;;;;5084199;28;20028;-83
2021/06/15 08:12:06;;;;;;;5.38;1.70;;;25.10;81.00;;;;;;5079411;28;20032;-86
2021/06/15 08:14:32;;;;;;;5.80;1.73;;;25.40;80.90;;;;;;5070265;28;20025;-84
2021/06/15 08:16:59;;;;;;;6.03;1.50;;;25.20;78.10;;;;;;5066829;28;20037;-83
2021/06/15 08:19:25;;;;;;;4.03;1.83;;;25.40;79.40;;;;;;5072782;28;20134;-85
2021/06/15 08:21:51;;;;;;;4.63;1.40;;;25.50;78.50;;;;;;5066377;28;20029;-85
2021/06/15 08:24:17;;;;;;;5.82;1.85;;;25.80;80.00;;;;;;5067057;28;20358;-84
2021/06/15 08:26:43;;;;;;;12.30;1.73;;;25.90;80.00;;;;;;5057563;28;20032;-83
2021/06/15 08:29:09;;;;;;;4.10;1.83;;;26.00;78.10;;;;;;5066199;28;20024;-84
2021/06/15 08:31:34;;;;;;;4.22;1.80;;;26.10;78.20;;;;;;5058744;28;20025;-84
2021/06/15 08:34:00;;;;;;;4.72;1.63;;;26.30;79.00;;;;;;5070247;28;20016;-84
2021/06/15 08:36:26;;;;;;;4.28;1.40;;;26.20;76.90;;;;;;5063054;28;20062;-83
2021/06/15 08:38:52;;;;;;;4.40;1.30;;;26.30;75.50;;;;;;5060378;28;20035;-83
2021/06/15 08:41:19;;;;;;;4.35;1.58;;;26.40;76.10;;;;;;5063565;28;20043;-84
2021/06/15 08:43:49;;;;;;;3.78;1.20;;;26.60;74.80;;;;;;5046631;28;20111;-83
2021/06/15 08:46:15;;;;;;;3.42;1.60;;;26.80;76.00;;;;;;5061929;28;20021;-84
2021/06/15 08:48:42;;;;;;;2.50;1.13;;;26.90;75.20;;;;;;5084386;28;20026;-83
2021/06/15 08:51:08;;;;;;;3.03;1.38;;;26.70;69.50;;;;;;5065286;28;20105;-84
2021/06/15 08:53:34;;;;;;;3.20;1.30;;;26.80;72.50;;;;;;5064657;28;20116;-84
2021/06/15 08:56:30;;;;;;;4.25;1.70;;;27.10;72.60;;;;;;5073720;28;20527;-84
2021/06/15 08:59:05;;;;;;;5.82;1.50;;;27.20;72.70;;;;;;5045632;28;20035;-84
2021/06/15 09:01:32;;;;;;;3.33;1.30;;;27.00;71.60;;;;;;5067215;28;20031;-84
2021/06/15 09:04:00;;;;;;;4.95;1.48;;;27.00;70.00;;;;;;5060141;28;20033;-84
2021/06/15 09:06:25;;;;;;;2.70;1.08;;;27.20;68.10;;;;;;5059966;28;20390;-85
2021/06/15 09:08:56;;;;;;;4.85;1.38;;;27.20;66.50;;;;;;5058747;28;20040;-85
2021/06/15 09:11:23;;;;;;;3.40;1.48;;;27.10;66.30;;;;;;5060888;28;20699;-85
2021/06/15 09:13:49;;;;;;;8.80;1.45;;;27.30;66.20;;;;;;5063882;28;20040;-84
2021/06/15 09:16:29;;;;;;;4.72;1.40;;;27.30;67.10;;;;;;5064067;28;20115;-85
2021/06/15 09:18:58;;;;;;;2.47;1.40;;;27.30;66.50;;;;;;5082671;28;20031;-85
2021/06/15 09:21:29;;;;;;;2.75;1.30;;;27.40;66.00;;;;;;5049377;28;20021;-84
2021/06/15 09:24:10;;;;;;;2.92;1.38;;;27.70;63.70;;;;;;5061143;28;20020;-85
2021/06/15 09:27:00;;;;;;;3.22;1.27;;;28.00;65.20;;;;;;5072020;28;20477;-84
2021/06/15 09:29:52;;;;;;;4.18;1.13;;;28.10;62.90;;;;;;5071869;28;20020;-84
2021/06/15 09:32:23;;;;;;;3.17;1.58;;;28.10;62.30;;;;;;5070132;28;20036;-83
2021/06/15 09:35:01;;;;;;;3.03;1.13;;;28.00;61.50;;;;;;5073329;28;20435;-84
2021/06/15 09:37:31;;;;;;;4.47;1.35;;;28.10;63.10;;;;;;5067738;28;20029;-86
2021/06/15 09:40:00;;;;;;;2.55;1.25;;;28.10;62.90;;;;;;5064938;28;20118;-86
2021/06/15 09:42:26;;;;;;;3.42;1.05;;;28.20;64.10;;;;;;5059236;28;20025;-85
2021/06/15 09:44:52;;;;;;;3.40;1.40;;;28.30;63.10;;;;;;5056972;28;20035;-85
2021/06/15 09:47:21;;;;;;;6.25;1.38;;;28.40;61.30;;;;;;5067717;28;20086;-85
2021/06/15 09:49:46;;;;;;;2.75;1.10;;;28.30;59.70;;;;;;5062606;28;20025;-86
2021/06/15 09:52:21;;;;;;;2.95;1.00;;;28.40;62.10;;;;;;5057077;28;20041;-86
2021/06/15 09:54:51;;;;;;;5.13;1.20;;;28.60;60.00;;;;;;5054184;28;20029;-85
2021/06/15 09:57:28;;;;;;;7.05;1.20;;;28.50;59.20;;;;;;5067740;28;20027;-86
2021/06/15 10:00:07;;;;;;;3.30;1.30;;;28.70;58.80;;;;;;5065390;28;20187;-85
2021/06/15 10:02:33;;;;;;;3.03;1.02;;;28.70;59.30;;;;;;5061475;28;20024;-86
2021/06/15 10:05:26;;;;;;;2.55;1.20;;;28.70;59.20;;;;;;5068592;28;20392;-86
2021/06/15 10:07:53;;;;;;;3.42;1.40;;;28.80;59.50;;;;;;5064543;28;20025;-86
2021/06/15 10:10:21;;;;;;;4.75;1.30;;;28.90;58.00;;;;;;5071434;28;20135;-85
2021/06/15 10:12:48;;;;;;;2.92;1.20;;;28.90;58.50;;;;;;5067490;28;20404;-86
2021/06/15 10:15:15;;;;;;;6.80;1.30;;;29.10;58.90;;;;;;5067256;28;20033;-85
2021/06/15 10:17:43;;;;;;;2.38;1.17;;;29.20;58.20;;;;;;5071245;28;20059;-86
2021/06/15 10:20:12;;;;;;;2.88;1.20;;;29.20;57.80;;;;;;5068090;28;20016;-86
2021/06/15 10:22:37;;;;;;;2.97;1.27;;;29.40;58.00;;;;;;5068099;28;20016;-86
2021/06/15 10:25:04;;;;;;;2.65;1.33;;;29.60;56.50;;;;;;5068447;28;20230;-86
2021/06/15 10:27:31;;;;;;;4.20;1.08;;;29.60;56.40;;;;;;5064498;28;20029;-85
2021/06/15 10:29:57;;;;;;;3.50;1.10;;;29.50;55.80;;;;;;5067181;28;20024;-85
2021/06/15 10:32:25;;;;;;;3.25;1.08;;;29.40;55.40;;;;;;5086057;28;20105;-86
2021/06/15 10:34:57;;;;;;;2.88;1.40;;;29.50;56.90;;;;;;5072096;28;20396;-85
2021/06/15 10:37:35;;;;;;;2.20;1.00;;;29.60;55.10;;;;;;5068114;28;20047;-87
2021/06/15 10:40:12;;;;;;;3.00;1.10;;;29.80;55.40;;;;;;5068100;28;20020;-87
2021/06/15 10:42:38;;;;;;;2.65;1.17;;;29.90;54.50;;;;;;5070283;28;20523;-86
2021/06/15 10:45:12;;;;;;;2.95;0.90;;;30.30;56.20;;;;;;5072645;28;20060;-86
2021/06/15 10:47:39;;;;;;;3.38;0.90;;;30.50;54.10;;;;;;5066863;28;20036;-86
2021/06/15 10:50:07;;;;;;;2.42;1.00;;;30.60;54.80;;;;;;5051935;28;20124;-86
2021/06/15 10:52:59;;;;;;;3.05;0.95;;;30.50;51.90;;;;;;5072901;28;20480;-86
2021/06/15 10:55:49;;;;;;;3.50;0.90;;;30.50;52.70;;;;;;5060465;28;20047;-86
2021/06/15 10:58:17;;;;;;;1.90;0.97;;;30.40;51.50;;;;;;5064459;28;20028;-86
2021/06/15 11:00:51;;;;;;;2.25;0.90;;;30.50;52.00;;;;;;5067985;28;20279;-86
2021/06/15 11:03:17;;;;;;;2.58;1.10;;;30.70;52.10;;;;;;5079274;28;20040;-86
2021/06/15 11:05:45;;;;;;;2.85;0.90;;;30.60;51.60;;;;;;5070979;28;20048;-87
2021/06/15 11:08:35;;;;;;;2.92;0.80;;;30.60;50.90;;;;;;5070116;28;20123;-86
2021/06/15 11:11:04;;;;;;;4.40;1.53;;;30.60;50.90;;;;;;5067461;28;20120;-87
2021/06/15 11:13:46;;;;;;;2.85;1.02;;;31.10;52.20;;;;;;5074237;28;20427;-87
2021/06/15 11:16:31;;;;;;;2.97;0.90;;;31.50;51.40;;;;;;5061437;28;20025;-87
2021/06/15 11:19:17;;;;;;;2.65;0.93;;;31.70;48.50;;;;;;5067488;28;20465;-88
2021/06/15 11:21:49;;;;;;;2.92;1.08;;;31.80;49.10;;;;;;5057948;28;20073;-87
2021/06/15 11:24:30;;;;;;;3.65;0.90;;;31.60;49.20;;;;;;5068642;28;20071;-86
2021/06/15 11:27:03;;;;;;;1.40;0.80;;;31.40;49.90;;;;;;5069851;28;20040;-87
2021/06/15 11:29:36;;;;;;;2.35;0.90;;;31.30;49.60;;;;;;5067438;28;20048;-87
2021/06/15 11:32:17;;;;;;;3.60;1.10;;;31.40;50.00;;;;;;5084230;28;20035;-87
2021/06/15 11:35:03;;;;;;;2.42;0.80;;;31.30;48.80;;;;;;5065157;28;20075;-85
2021/06/15 11:37:33;;;;;;;2.78;0.90;;;31.30;48.80;;;;;;5051662;28;20031;-85
2021/06/15 11:40:17;;;;;;;5.05;0.80;;;31.40;50.10;;;;;;5060369;28;20021;-85
2021/06/15 11:42:45;;;;;;;1.85;0.88;;;31.60;48.60;;;;;;5067562;28;20048;-86
2021/06/15 11:45:14;;;;;;;1.42;0.68;;;31.60;46.70;;;;;;5052074;28;20086;-86
2021/06/15 11:47:47;;;;;;;2.72;0.88;;;32.00;48.10;;;;;;5079467;28;20050;-87
2021/06/15 11:50:33;;;;;;;2.08;0.93;;;32.00;47.20;;;;;;5077928;28;20391;-86
2021/06/15 11:53:15;;;;;;;2.08;0.90;;;32.10;47.40;;;;;;5057787;28;20031;-85
2021/06/15 11:55:51;;;;;;;3.03;0.90;;;32.30;47.20;;;;;;5058105;28;20014;-85
2021/06/15 11:58:24;;;;;;;10.55;1.20;;;32.50;46.90;;;;;;5067947;28;20027;-85
2021/06/15 12:01:06;;;;;;;2.20;1.00;;;32.60;46.70;;;;;;5068508;28;20441;-85
2021/06/15 12:03:37;;;;;;;3.95;1.20;;;32.50;45.80;;;;;;5055680;28;20041;-85
2021/06/15 12:06:04;;;;;;;1.77;0.80;;;31.90;45.60;;;;;;5061495;28;20032;-85
2021/06/15 12:08:31;;;;;;;1.83;1.00;;;32.00;46.30;;;;;;5065675;28;20024;-84
2021/06/15 12:10:57;;;;;;;3.08;1.13;;;31.70;47.80;;;;;;5059646;28;20566;-83
2021/06/15 12:13:25;;;;;;;2.65;0.70;;;32.10;46.90;;;;;;5054735;28;20027;-83
2021/06/15 12:16:11;;;;;;;3.50;1.00;;;32.30;47.20;;;;;;5056972;28;20028;-85
2021/06/15 12:18:40;;;;;;;2.75;1.00;;;32.40;47.70;;;;;;5049646;28;20474;-84
2021/06/15 12:21:09;;;;;;;1.98;0.98;;;32.70;48.30;;;;;;5054471;28;20512;-85
2021/06/15 12:23:39;;;;;;;3.35;1.10;;;33.00;47.10;;;;;;5053624;28;20035;-85
2021/06/15 12:26:07;;;;;;;2.08;1.13;;;33.30;45.20;;;;;;5050929;28;20028;-85
2021/06/15 12:28:35;;;;;;;1.98;0.80;;;33.10;47.20;;;;;;5070509;28;20496;-85
2021/06/15 12:31:06;;;;;;;3.03;1.00;;;33.20;45.30;;;;;;5057342;28;20039;-85
2021/06/15 12:33:32;;;;;;;2.63;0.70;;;33.70;45.00;;;;;;5067612;28;20102;-82
2021/06/15 12:36:03;;;;;;;1.80;0.75;;;34.00;43.90;;;;;;5065123;28;20130;-83
2021/06/15 12:38:29;;;;;;;1.58;0.57;;;34.30;42.30;;;;;;5061392;28;20032;-84
2021/06/15 12:40:55;;;;;;;1.80;0.93;;;34.30;44.00;;;;;;5092533;22;20056;-84
2021/06/15 12:43:28;;;;;;;2.03;0.80;;;34.30;42.10;;;;;;5094053;28;20028;-84
2021/06/15 12:46:28;;;;;;;3.05;1.30;;;34.30;44.40;;;;;;5076086;28;20127;-83
2021/06/15 12:49:03;;;;;;;2.08;0.85;;;34.20;43.60;;;;;;5054317;28;20040;-85
2021/06/15 12:51:32;;;;;;;2.28;0.80;;;34.20;42.00;;;;;;5074554;28;20043;-82
2021/06/15 12:54:04;;;;;;;1.98;0.68;;;34.30;42.50;;;;;;5076919;28;20039;-85
2021/06/15 12:56:33;;;;;;;1.85;0.50;;;34.50;43.10;;;;;;5090099;28;20050;-84
2021/06/15 12:59:12;;;;;;;3.22;0.70;;;35.00;41.90;;;;;;5092905;28;20008;-82
2021/06/15 13:01:38;;;;;;;4.28;0.82;;;35.10;42.90;;;;;;5072313;28;20111;-84
2021/06/15 13:04:44;;;;;;;1.80;0.60;;;35.10;41.50;;;;;;5094500;28;20016;-82
2021/06/15 13:07:12;;;;;;;1.60;0.57;;;35.10;41.60;;;;;;5037425;28;20094;-83